South Seaville, New Jersey
Current Conditions -  °F | °C
As of 12:55 AM on Tuesday 27 Jan 2015 (Local Time) from KWWD Reporting Station
Overcast Overcast  
Wind Chill: 19°   Ceiling: 1800
Heat Index: 30°   Visibility: 10mi
Dew Point: 21°   Wind: 15mph
Humidity: 69%   Direction: 360°N
Pressure: 29.61"   Gusts: 21mph
Location:  39.18°N, 74.76°W
Report Text: KWWD 270555Z AUTO 36013G18KT 10SM OVC018 M01/M06 A2961 RMK AO1 10020 21010 52007
Loading
Personal Weather Stations






























Interactive Weather Map New forecast layout! Learn more

10-Day Weather Forecast

Advertisements
Track Severe Weather on mobile